Time;durP1;ratioP1;P1;durP2;ratioP2;P2;SDS_P1;SDS_P2;PMS_P1;PMS_P2;Temp;Humidity;BMP_temperature;BMP_pressure;BME280_temperature;BME280_humidity;BME280_pressure;Samples;Min_cycle;Max_cycle;Signal;HPM_P1;HPM_P2
2024/01/03 00:02:22;;;;;;;15.48;2.53;;;;;;;8.53;100.00;98490.47;5157748;27;20175;-80
2024/01/03 00:04:49;;;;;;;21.02;2.80;;;;;;;8.50;100.00;98502.78;5154398;27;20043;-80
2024/01/03 00:07:16;;;;;;;13.82;2.30;;;;;;;8.48;100.00;98488.53;5157202;27;20123;-80
2024/01/03 00:09:43;;;;;;;19.92;2.50;;;;;;;8.47;100.00;98526.88;5157011;27;20043;-80
2024/01/03 00:12:13;;;;;;;9.52;1.70;;;;;;;8.44;100.00;98509.97;5157463;27;20565;-80
2024/01/03 00:14:39;;;;;;;7.30;1.80;;;;;;;8.42;100.00;98517.69;5158107;27;20119;-80
2024/01/03 00:17:07;;;;;;;5.55;1.42;;;;;;;8.40;100.00;98530.00;5157932;27;20524;-80
2024/01/03 00:19:35;;;;;;;7.28;1.58;;;;;;;8.39;100.00;98536.50;5156489;27;20043;-80
2024/01/03 00:22:02;;;;;;;9.98;2.22;;;;;;;8.35;100.00;98518.16;5156984;27;20212;-80
2024/01/03 00:24:29;;;;;;;4.03;1.10;;;;;;;8.33;100.00;98550.44;5156849;27;20047;-80
2024/01/03 00:26:56;;;;;;;6.80;1.48;;;;;;;8.33;100.00;98555.03;5158334;27;20043;-80
2024/01/03 00:29:22;;;;;;;2.75;0.80;;;;;;;8.30;100.00;98550.66;5157143;27;20555;-81
2024/01/03 00:31:49;;;;;;;5.43;1.60;;;;;;;8.29;100.00;98552.56;5157583;27;20096;-81
2024/01/03 00:34:22;;;;;;;5.03;1.42;;;;;;;8.28;100.00;98543.16;5157514;27;20047;-81
2024/01/03 00:36:53;;;;;;;4.55;1.25;;;;;;;8.28;100.00;98561.72;5137978;27;20101;-81
2024/01/03 00:39:31;;;;;;;7.70;1.30;;;;;;;8.26;100.00;98558.81;5156588;27;20035;-81
2024/01/03 00:41:58;;;;;;;7.05;1.75;;;;;;;8.27;100.00;98562.19;5153869;27;20588;-81
2024/01/03 00:44:25;;;;;;;8.25;2.20;;;;;;;8.27;100.00;98580.75;5137431;27;20083;-81
2024/01/03 00:46:53;;;;;;;12.60;2.25;;;;;;;8.26;100.00;98584.59;5156802;27;20038;-81
2024/01/03 00:49:20;;;;;;;9.75;1.58;;;;;;;8.25;100.00;98580.50;5157257;27;20043;-81
2024/01/03 00:51:49;;;;;;;10.85;2.17;;;;;;;8.24;100.00;98571.81;5157618;27;20164;-82
2024/01/03 00:54:18;;;;;;;6.38;1.92;;;;;;;8.24;100.00;98574.47;5156347;27;20050;-81
2024/01/03 00:56:46;;;;;;;10.77;1.80;;;;;;;8.25;100.00;98577.84;5157006;27;20050;-81
2024/01/03 00:59:15;;;;;;;12.98;1.73;;;;;;;8.26;100.00;98577.38;5138233;27;20535;-81
2024/01/03 01:01:42;;;;;;;11.82;2.35;;;;;;;8.26;100.00;98585.34;5156426;27;20132;-81
2024/01/03 01:04:10;;;;;;;11.93;2.28;;;;;;;8.26;100.00;98585.34;5155542;27;20090;-81
2024/01/03 01:06:37;;;;;;;11.73;1.92;;;;;;;8.26;100.00;98587.97;5136967;27;20130;-80
2024/01/03 01:09:04;;;;;;;9.20;2.08;;;;;;;8.28;100.00;98588.22;5137193;27;20134;-80
2024/01/03 01:11:31;;;;;;;11.27;2.30;;;;;;;8.28;100.00;98585.59;5156146;27;20427;-80
2024/01/03 01:13:58;;;;;;;15.05;2.30;;;;;;;8.28;100.00;98582.94;5138143;27;20539;-81
2024/01/03 01:16:25;;;;;;;9.65;2.15;;;;;;;8.32;100.00;98593.31;5152915;27;20047;-80
2024/01/03 01:18:52;;;;;;;14.43;2.35;;;;;;;8.35;100.00;98581.78;5156646;27;20456;-82
2024/01/03 01:21:19;;;;;;;16.42;2.38;;;;;;;8.38;100.00;98607.34;5154945;27;20043;-81
2024/01/03 01:23:45;;;;;;;17.17;3.42;;;;;;;8.41;100.00;98595.78;5136874;27;20052;-82
2024/01/03 01:26:12;;;;;;;21.95;3.35;;;;;;;8.44;100.00;98596.75;5138022;27;20480;-80
2024/01/03 01:28:39;;;;;;;16.77;2.88;;;;;;;8.44;100.00;98621.34;5155951;27;20493;-80
2024/01/03 01:31:05;;;;;;;22.92;3.03;;;;;;;8.47;100.00;98615.09;5155940;27;20075;-80
2024/01/03 01:33:32;;;;;;;23.45;2.78;;;;;;;8.51;100.00;98617.50;5155741;27;20502;-80
2024/01/03 01:35:59;;;;;;;18.35;2.92;;;;;;;8.52;100.00;98626.91;5137958;27;20139;-81
2024/01/03 01:38:26;;;;;;;19.17;2.80;;;;;;;8.55;100.00;98625.97;5133664;27;20036;-82
2024/01/03 01:40:53;;;;;;;18.23;3.03;;;;;;;8.55;100.00;98649.84;5155002;27;20494;-81
2024/01/03 01:43:19;;;;;;;17.92;2.75;;;;;;;8.54;100.00;98648.38;5136992;27;20059;-81
2024/01/03 01:45:47;;;;;;;23.17;3.10;;;;;;;8.54;100.00;98633.19;5156097;27;20575;-81
2024/01/03 01:48:15;;;;;;;13.75;2.65;;;;;;;8.55;100.00;98658.53;5137419;27;20062;-81
2024/01/03 01:50:44;;;;;;;17.88;3.33;;;;;;;8.58;100.00;98649.63;5156764;27;20043;-81
2024/01/03 01:53:12;;;;;;;16.08;2.85;;;;;;;8.60;100.00;98654.44;5155697;27;20518;-81
2024/01/03 01:55:39;;;;;;;19.30;2.83;;;;;;;8.64;100.00;98665.56;5156289;27;20042;-80
2024/01/03 01:58:07;;;;;;;17.30;2.92;;;;;;;8.65;100.00;98661.72;5137400;27;20047;-80
2024/01/03 02:00:36;;;;;;;15.35;2.80;;;;;;;8.65;100.00;98667.00;5133641;27;20039;-80
2024/01/03 02:03:03;;;;;;;17.85;3.63;;;;;;;8.71;100.00;98659.09;5133470;27;20830;-80
2024/01/03 02:05:30;;;;;;;17.85;3.35;;;;;;;8.71;100.00;98670.41;5147878;27;20161;-80
2024/01/03 02:07:58;;;;;;;20.38;2.72;;;;;;;8.72;100.00;98676.44;5137498;27;20039;-80
2024/01/03 02:10:24;;;;;;;12.57;2.22;;;;;;;8.72;100.00;98674.53;5155762;27;20781;-80
2024/01/03 02:12:51;;;;;;;17.10;2.88;;;;;;;8.74;100.00;98684.66;5137094;27;20051;-80
2024/01/03 02:15:18;;;;;;;16.60;3.33;;;;;;;8.77;100.00;98689.03;5155313;27;20035;-80
2024/01/03 02:17:46;;;;;;;26.05;2.75;;;;;;;8.79;100.00;98682.03;5135109;27;20143;-80
2024/01/03 02:20:13;;;;;;;14.68;2.85;;;;;;;8.80;100.00;98696.72;5155033;27;20478;-80
2024/01/03 02:22:40;;;;;;;10.30;2.42;;;;;;;8.83;100.00;98684.44;5155513;27;20048;-80
2024/01/03 02:25:10;;;;;;;21.02;2.88;;;;;;;8.82;100.00;98694.31;5155487;27;20494;-80
2024/01/03 02:27:38;;;;;;;15.73;2.60;;;;;;;8.84;100.00;98676.00;5154946;27;20051;-80
2024/01/03 02:30:05;;;;;;;15.27;2.38;;;;;;;8.87;100.00;98690.97;5155227;27;20035;-80
2024/01/03 02:32:32;;;;;;;15.82;3.28;;;;;;;8.88;100.00;98710.28;5150538;27;20031;-80
2024/01/03 02:34:59;;;;;;;17.33;2.60;;;;;;;8.88;100.00;98707.63;5135137;27;20550;-80
2024/01/03 02:37:26;;;;;;;15.35;2.88;;;;;;;8.88;100.00;98694.34;5155302;27;20447;-80
2024/01/03 02:39:52;;;;;;;16.60;2.90;;;;;;;8.89;100.00;98717.75;5154957;27;20142;-80
2024/01/03 02:42:19;;;;;;;14.27;2.75;;;;;;;8.90;100.00;98710.53;5154486;27;20039;-80
2024/01/03 02:44:45;;;;;;;18.35;2.55;;;;;;;8.89;100.00;98709.81;5153007;27;20071;-80
2024/01/03 02:47:12;;;;;;;10.43;2.58;;;;;;;8.90;100.00;98716.56;5155294;27;20092;-80
2024/01/03 02:49:38;;;;;;;12.68;2.65;;;;;;;8.91;100.00;98733.94;5154632;27;20054;-80
2024/01/03 02:52:05;;;;;;;13.77;2.22;;;;;;;8.92;100.00;98718.75;5155518;27;20587;-79
2024/01/03 02:54:32;;;;;;;13.35;2.70;;;;;;;8.94;100.00;98734.91;5129315;27;20122;-80
2024/01/03 02:56:58;;;;;;;15.25;2.55;;;;;;;8.97;100.00;98733.97;5155808;27;20031;-79
2024/01/03 02:59:25;;;;;;;14.20;2.53;;;;;;;8.97;100.00;98734.69;5160625;27;20053;-79
2024/01/03 03:01:52;;;;;;;13.02;2.67;;;;;;;8.99;100.00;98728.91;5161780;27;20057;-79
2024/01/03 03:04:19;;;;;;;16.67;3.15;;;;;;;8.99;100.00;98732.28;5161125;27;20047;-79
2024/01/03 03:06:46;;;;;;;12.57;2.53;;;;;;;9.01;100.00;98737.84;5156690;27;20432;-79
2024/01/03 03:09:12;;;;;;;14.57;2.53;;;;;;;9.03;100.00;98730.13;5155156;27;20031;-79
2024/01/03 03:11:43;;;;;;;16.20;2.75;;;;;;;9.02;100.00;98741.94;5155212;27;20047;-79
2024/01/03 03:14:10;;;;;;;17.58;3.33;;;;;;;9.02;100.00;98735.91;5155933;27;20067;-79
2024/01/03 03:16:37;;;;;;;16.27;2.55;;;;;;;9.01;100.00;98743.16;5156524;27;20127;-80
2024/01/03 03:19:05;;;;;;;11.98;2.63;;;;;;;9.03;100.00;98746.06;5155390;27;20101;-80
2024/01/03 03:21:32;;;;;;;15.52;2.95;;;;;;;9.05;100.00;98748.25;5154654;27;20778;-79
2024/01/03 03:24:00;;;;;;;14.00;2.40;;;;;;;9.06;100.00;98747.03;5154805;27;20055;-79
2024/01/03 03:26:27;;;;;;;10.82;2.60;;;;;;;9.08;100.00;98755.25;5154639;27;20039;-79
2024/01/03 03:28:54;;;;;;;13.30;3.10;;;;;;;9.09;100.00;98754.03;5154543;27;20092;-79
2024/01/03 03:31:20;;;;;;;10.38;2.25;;;;;;;9.08;100.00;98743.91;5155605;27;20039;-78
2024/01/03 03:33:47;;;;;;;14.48;2.67;;;;;;;9.07;100.00;98758.38;5155197;27;20035;-78
2024/01/03 03:36:14;;;;;;;15.77;3.05;;;;;;;9.08;100.00;98749.94;5154626;27;20467;-78
2024/01/03 03:38:41;;;;;;;18.35;2.92;;;;;;;9.11;100.00;98764.19;5153539;27;20063;-78
2024/01/03 03:41:12;;;;;;;12.80;2.97;;;;;;;9.10;100.00;98773.34;5155142;27;20066;-78
2024/01/03 03:43:40;;;;;;;29.73;4.07;;;;;;;9.12;100.00;98774.34;5150686;27;20108;-79
2024/01/03 03:46:07;;;;;;;19.63;3.75;;;;;;;9.13;100.00;98767.09;5152893;27;20048;-79
2024/01/03 03:48:34;;;;;;;14.43;3.30;;;;;;;9.12;100.00;98750.44;5154334;27;20490;-79
2024/01/03 03:51:02;;;;;;;19.98;3.33;;;;;;;9.12;100.00;98769.03;5155325;27;20472;-79
2024/01/03 03:53:29;;;;;;;17.23;3.08;;;;;;;9.14;100.00;98771.94;5154211;27;20047;-79
2024/01/03 03:55:55;;;;;;;19.85;3.13;;;;;;;9.16;100.00;98771.44;5155783;27;20043;-79
2024/01/03 03:58:22;;;;;;;17.85;3.33;;;;;;;9.17;100.00;98767.59;5158428;27;20486;-79
2024/01/03 04:00:49;;;;;;;22.58;3.88;;;;;;;9.16;100.00;98763.50;5158670;27;20154;-79
2024/01/03 04:03:15;;;;;;;23.13;4.53;;;;;;;9.16;100.00;98761.56;5158158;27;20047;-78
2024/01/03 04:05:42;;;;;;;19.70;3.53;;;;;;;9.17;100.00;98772.91;5157810;27;20063;-78
2024/01/03 04:08:09;;;;;;;27.23;3.45;;;;;;;9.15;100.00;98773.38;5154603;27;20075;-79
2024/01/03 04:10:36;;;;;;;14.32;3.42;;;;;;;9.14;100.00;98779.16;5157845;27;20053;-78
2024/01/03 04:13:04;;;;;;;26.35;4.28;;;;;;;9.15;100.00;98781.34;5158857;27;20049;-78
2024/01/03 04:15:30;;;;;;;24.27;4.38;;;;;;;9.16;100.00;98787.38;5153505;27;20043;-79
2024/01/03 04:17:57;;;;;;;27.20;4.10;;;;;;;9.16;100.00;98779.41;5158083;27;20043;-79
2024/01/03 04:20:24;;;;;;;28.65;4.63;;;;;;;9.15;100.00;98780.63;5158315;27;20100;-79
2024/01/03 04:22:50;;;;;;;22.73;3.50;;;;;;;9.15;100.00;98797.28;5157171;27;20097;-79
2024/01/03 04:25:17;;;;;;;18.95;3.50;;;;;;;9.17;100.00;98786.19;5157812;27;20058;-79
2024/01/03 04:27:43;;;;;;;24.42;4.57;;;;;;;9.18;100.00;98803.56;5157162;27;20100;-79
2024/01/03 04:30:10;;;;;;;20.20;3.58;;;;;;;9.17;100.00;98796.78;5158449;27;20561;-79
2024/01/03 04:32:37;;;;;;;22.83;3.20;;;;;;;9.16;100.00;98804.03;5138977;27;20043;-79
2024/01/03 04:35:04;;;;;;;25.05;4.72;;;;;;;9.15;100.00;98805.22;5157296;27;20050;-79
2024/01/03 04:37:32;;;;;;;19.15;4.03;;;;;;;9.18;100.00;98792.94;5157637;27;20050;-79
2024/01/03 04:39:58;;;;;;;20.90;3.25;;;;;;;9.19;100.00;98802.34;5157856;27;20049;-79
2024/01/03 04:42:25;;;;;;;25.90;3.75;;;;;;;9.19;100.00;98802.34;5156839;27;20039;-78
2024/01/03 04:44:52;;;;;;;22.13;4.10;;;;;;;9.19;100.00;98803.09;5139730;27;20539;-78
2024/01/03 04:47:19;;;;;;;18.10;3.47;;;;;;;9.23;100.00;98805.50;5157265;27;20498;-78
2024/01/03 04:49:46;;;;;;;27.52;3.97;;;;;;;9.23;100.00;98808.88;5157374;27;20548;-79
2024/01/03 04:52:13;;;;;;;24.38;4.07;;;;;;;9.24;100.00;98804.28;5153276;27;20047;-78
2024/01/03 04:54:39;;;;;;;31.85;4.13;;;;;;;9.24;100.00;98805.00;5157023;27;20093;-78
2024/01/03 04:57:06;;;;;;;25.30;4.22;;;;;;;9.24;100.00;98804.28;5156678;27;20517;-78
2024/01/03 04:59:33;;;;;;;26.60;4.40;;;;;;;9.22;100.00;98794.16;5157157;27;20035;-78
2024/01/03 05:01:59;;;;;;;26.38;4.30;;;;;;;9.23;100.00;98798.25;5157491;27;20069;-78
2024/01/03 05:04:26;;;;;;;20.42;3.45;;;;;;;9.23;100.00;98805.50;5156174;27;20043;-78
2024/01/03 05:06:52;;;;;;;31.02;4.00;;;;;;;9.24;100.00;98806.94;5156450;27;20501;-78
2024/01/03 05:09:19;;;;;;;18.35;3.65;;;;;;;9.23;100.00;98816.84;5156754;27;20043;-78
2024/01/03 05:11:46;;;;;;;28.55;4.13;;;;;;;9.24;100.00;98798.97;5156822;27;20103;-78
2024/01/03 05:14:12;;;;;;;23.58;4.15;;;;;;;9.24;100.00;98809.59;5157202;27;20488;-78
2024/01/03 05:16:41;;;;;;;23.85;4.45;;;;;;;9.25;100.00;98801.16;5157957;27;20031;-78
2024/01/03 05:19:07;;;;;;;21.95;4.47;;;;;;;9.28;100.00;98804.78;5156813;27;20031;-79
2024/01/03 05:21:34;;;;;;;21.52;3.45;;;;;;;9.29;100.00;98812.28;5156677;27;20202;-79
2024/01/03 05:24:01;;;;;;;27.73;4.32;;;;;;;9.30;100.00;98813.72;5157220;27;20050;-79
2024/01/03 05:26:28;;;;;;;25.77;4.18;;;;;;;9.31;100.00;98814.47;5156401;27;20052;-79
2024/01/03 05:28:54;;;;;;;30.98;4.45;;;;;;;9.30;100.00;98805.75;5156485;27;20039;-79
2024/01/03 05:31:21;;;;;;;30.95;4.93;;;;;;;9.29;100.00;98808.91;5155134;27;20036;-79
2024/01/03 05:33:47;;;;;;;30.83;4.03;;;;;;;9.27;100.00;98809.38;5156485;27;20046;-79
2024/01/03 05:36:14;;;;;;;29.98;3.97;;;;;;;9.24;100.00;98807.66;5156143;27;20876;-79
2024/01/03 05:38:41;;;;;;;21.05;4.13;;;;;;;9.23;100.00;98813.47;5156117;27;20624;-79
2024/01/03 05:41:07;;;;;;;18.40;3.50;;;;;;;9.19;100.00;98807.66;5156444;27;20812;-79
2024/01/03 05:43:35;;;;;;;16.77;3.35;;;;;;;9.16;100.00;98809.34;5155661;27;20043;-79
2024/01/03 05:46:01;;;;;;;20.13;4.00;;;;;;;9.14;100.00;98805.72;5156667;27;20047;-79
2024/01/03 05:48:28;;;;;;;14.68;3.10;;;;;;;9.14;100.00;98816.31;5155862;27;20066;-79
2024/01/03 05:50:55;;;;;;;19.67;3.45;;;;;;;9.10;100.00;98819.19;5155940;27;20078;-79
2024/01/03 05:53:21;;;;;;;17.38;3.08;;;;;;;9.10;100.00;98815.81;5155819;27;20075;-79
2024/01/03 05:55:48;;;;;;;16.02;2.80;;;;;;;9.08;100.00;98810.25;5152058;27;20043;-79
2024/01/03 05:58:15;;;;;;;16.20;2.65;;;;;;;9.06;100.00;98820.63;5155517;27;20050;-79
2024/01/03 06:00:41;;;;;;;20.98;3.15;;;;;;;9.04;100.00;98813.13;5155283;27;20074;-79
2024/01/03 06:03:08;;;;;;;18.95;3.10;;;;;;;9.03;100.00;98820.38;5156484;27;20126;-79
2024/01/03 06:05:34;;;;;;;19.60;3.00;;;;;;;9.02;100.00;98823.50;5155628;27;20047;-79
2024/01/03 06:08:01;;;;;;;11.98;2.28;;;;;;;9.00;100.00;98818.66;5154435;27;20047;-79
2024/01/03 06:10:27;;;;;;;11.55;2.08;;;;;;;8.99;100.00;98822.53;5154889;27;20050;-79
2024/01/03 06:12:54;;;;;;;14.45;2.30;;;;;;;8.97;100.00;98824.19;5156118;27;20043;-79
2024/01/03 06:15:20;;;;;;;10.57;2.38;;;;;;;8.97;100.00;98814.31;5156107;27;20131;-79
2024/01/03 06:17:47;;;;;;;18.25;3.47;;;;;;;8.95;100.00;98822.00;5155200;27;20038;-78
2024/01/03 06:20:14;;;;;;;16.13;2.58;;;;;;;8.92;100.00;98817.66;5156207;27;20047;-81
2024/01/03 06:22:41;;;;;;;9.60;2.35;;;;;;;8.90;100.00;98814.75;5155447;27;20043;-79
2024/01/03 06:25:07;;;;;;;10.13;1.88;;;;;;;8.89;100.00;98815.94;5154980;27;20571;-79
2024/01/03 06:27:34;;;;;;;8.45;1.65;;;;;;;8.89;100.00;98831.84;5154446;27;20140;-79
2024/01/03 06:30:01;;;;;;;11.43;2.35;;;;;;;8.89;100.00;98828.47;5156176;27;20134;-79
2024/01/03 06:32:28;;;;;;;4.65;1.48;;;;;;;8.87;100.00;98836.19;5155046;27;20039;-79
2024/01/03 06:34:54;;;;;;;8.15;1.90;;;;;;;8.84;100.00;98827.25;5155401;27;20047;-78
2024/01/03 06:37:21;;;;;;;4.30;1.40;;;;;;;8.84;100.00;98834.47;5151991;27;20071;-80
2024/01/03 06:39:47;;;;;;;9.73;2.20;;;;;;;8.82;100.00;98845.56;5158396;27;20494;-78
2024/01/03 06:42:14;;;;;;;8.15;2.20;;;;;;;8.80;100.00;98832.03;5155513;27;20071;-79
2024/01/03 06:44:40;;;;;;;6.68;1.63;;;;;;;8.80;100.00;98829.38;5154836;27;20047;-80
2024/01/03 06:47:07;;;;;;;9.95;2.15;;;;;;;8.80;100.00;98839.25;5155564;27;20039;-79
2024/01/03 06:49:34;;;;;;;7.40;1.52;;;;;;;8.80;100.00;98821.41;5155480;27;20043;-79
2024/01/03 06:52:00;;;;;;;9.25;1.95;;;;;;;8.79;100.00;98835.91;5156165;27;20481;-79
2024/01/03 06:54:27;;;;;;;6.55;1.50;;;;;;;8.78;100.00;98850.38;5155193;27;20043;-79
2024/01/03 06:56:54;;;;;;;10.18;1.90;;;;;;;8.77;100.00;98840.97;5155864;27;20043;-81
2024/01/03 06:59:21;;;;;;;8.25;1.55;;;;;;;8.76;100.00;98855.44;5154313;27;20071;-80
2024/01/03 07:01:48;;;;;;;10.63;1.75;;;;;;;8.75;100.00;98858.56;5154683;27;20045;-79
2024/01/03 07:04:15;;;;;;;7.78;2.20;;;;;;;8.71;100.00;98850.06;5155408;27;20051;-79
2024/01/03 07:06:42;;;;;;;4.13;1.70;;;;;;;8.71;100.00;98860.69;5155384;27;20039;-81
2024/01/03 07:09:09;;;;;;;5.25;1.38;;;;;;;8.70;100.00;98859.97;5154630;27;20048;-81
2024/01/03 07:11:35;;;;;;;11.88;2.25;;;;;;;8.69;100.00;98853.19;5156296;27;20833;-81
2024/01/03 07:14:02;;;;;;;4.30;1.25;;;;;;;8.68;100.00;98851.75;5156340;27;20047;-82
2024/01/03 07:16:28;;;;;;;5.72;1.73;;;;;;;8.68;100.00;98871.03;5154512;27;20078;-80
2024/01/03 07:18:55;;;;;;;6.75;1.02;;;;;;;8.68;100.00;98865.00;5151233;27;20100;-80
2024/01/03 07:21:25;;;;;;;3.25;1.33;;;;;;;8.67;100.00;98868.84;5154599;27;20598;-77
2024/01/03 07:23:51;;;;;;;5.53;2.00;;;;;;;8.65;100.00;98865.94;5154545;27;20455;-77
2024/01/03 07:26:19;;;;;;;4.05;0.88;;;;;;;8.60;100.00;98877.97;5154255;27;20104;-80
2024/01/03 07:28:45;;;;;;;5.43;0.93;;;;;;;8.55;100.00;98886.59;5154704;27;20043;-79
2024/01/03 07:31:12;;;;;;;2.97;0.80;;;;;;;8.51;100.00;98891.38;5155292;27;20695;-81
2024/01/03 07:33:40;;;;;;;5.75;1.00;;;;;;;8.45;100.00;98887.22;5155132;27;20093;-82
2024/01/03 07:36:07;;;;;;;2.13;0.60;;;;;;;8.45;100.00;98889.88;5158687;27;20047;-83
2024/01/03 07:38:34;;;;;;;5.95;0.93;;;;;;;8.42;100.00;98906.72;5158633;27;20529;-82
2024/01/03 07:41:03;;;;;;;5.57;1.05;;;;;;;8.39;100.00;98891.78;5158450;27;20035;-82
2024/01/03 07:43:30;;;;;;;3.70;1.08;;;;;;;8.35;100.00;98898.00;5154032;27;20047;-82
2024/01/03 07:45:57;;;;;;;4.10;1.05;;;;;;;8.35;100.00;98897.28;5158444;27;20079;-82
2024/01/03 07:48:24;;;;;;;5.40;0.98;;;;;;;8.31;100.00;98908.06;5159055;27;20050;-81
2024/01/03 07:50:51;;;;;;;2.95;0.60;;;;;;;8.32;100.00;98914.09;5158326;27;20043;-82
2024/01/03 07:53:17;;;;;;;4.40;0.80;;;;;;;8.27;100.00;98910.19;5158519;27;20046;-82
2024/01/03 07:55:44;;;;;;;6.40;1.25;;;;;;;8.27;100.00;98917.41;5163395;27;20094;-83
2024/01/03 07:58:11;;;;;;;6.05;1.02;;;;;;;8.24;100.00;98919.06;5166967;27;20069;-81
2024/01/03 08:00:37;;;;;;;4.80;0.82;;;;;;;8.21;100.00;98917.34;5166962;27;20063;-79
2024/01/03 08:03:04;;;;;;;12.07;0.95;;;;;;;8.20;100.00;98925.78;5163948;27;20070;-79
2024/01/03 08:05:31;;;;;;;5.47;1.00;;;;;;;8.20;100.00;98918.53;5158091;27;20085;-79
2024/01/03 08:07:57;;;;;;;7.82;0.85;;;;;;;8.18;100.00;98923.59;5160308;27;20039;-81
2024/01/03 08:10:24;;;;;;;4.20;0.93;;;;;;;8.19;100.00;98924.31;5159056;27;20055;-81
2024/01/03 08:12:50;;;;;;;5.05;1.02;;;;;;;8.20;100.00;98926.50;5159307;27;20047;-80
2024/01/03 08:15:19;;;;;;;3.00;1.00;;;;;;;8.21;100.00;98932.53;5160173;27;20900;-81
2024/01/03 08:17:46;;;;;;;6.72;1.35;;;;;;;8.21;100.00;98927.97;5158158;27;20069;-81
2024/01/03 08:20:12;;;;;;;7.25;1.50;;;;;;;8.22;100.00;98928.69;5159894;27;20039;-84
2024/01/03 08:22:39;;;;;;;3.53;1.20;;;;;;;8.23;100.00;98938.09;5159543;27;20469;-83
2024/01/03 08:25:06;;;;;;;9.00;1.95;;;;;;;8.23;100.00;98928.22;5159709;27;20047;-80
2024/01/03 08:27:36;;;;;;;7.18;1.38;;;;;;;8.25;100.00;98925.09;5154250;27;20069;-79
2024/01/03 08:30:02;;;;;;;8.30;1.70;;;;;;;8.26;100.00;98924.63;5154986;27;20429;-77
2024/01/03 08:32:29;;;;;;;9.55;1.70;;;;;;;8.29;100.00;98934.31;5141303;27;20043;-80
2024/01/03 08:34:56;;;;;;;12.25;1.75;;;;;;;8.31;100.00;98931.19;5160605;27;20072;-80
2024/01/03 08:37:22;;;;;;;9.77;1.63;;;;;;;8.34;100.00;98932.94;5159289;27;20039;-80
2024/01/03 08:39:49;;;;;;;10.50;1.95;;;;;;;8.35;100.00;98927.19;5160868;27;20027;-79
2024/01/03 08:42:16;;;;;;;11.60;2.05;;;;;;;8.36;100.00;98927.91;5158884;27;20042;-79
2024/01/03 08:44:43;;;;;;;9.38;1.67;;;;;;;8.39;100.00;98944.81;5159108;27;20043;-79
2024/01/03 08:47:12;;;;;;;6.22;1.20;;;;;;;8.40;100.00;98933.00;5160608;27;20043;-80
2024/01/03 08:49:38;;;;;;;9.60;1.63;;;;;;;8.41;100.00;98932.50;5159868;27;20046;-80
2024/01/03 08:52:05;;;;;;;14.00;1.92;;;;;;;8.43;100.00;98945.31;5156714;27;20070;-80
2024/01/03 08:54:32;;;;;;;9.07;1.92;;;;;;;8.45;100.00;98946.28;5159421;27;20039;-80
2024/01/03 08:56:58;;;;;;;16.77;2.10;;;;;;;8.48;100.00;98941.97;5159558;27;20075;-79
2024/01/03 08:59:25;;;;;;;14.13;1.90;;;;;;;8.51;100.00;98949.00;5159237;27;20062;-79
2024/01/03 09:01:52;;;;;;;10.50;2.33;;;;;;;8.55;100.00;98952.19;5159705;27;20039;-79
2024/01/03 09:04:19;;;;;;;15.98;2.15;;;;;;;8.57;100.00;98947.84;5159803;27;20073;-81
2024/01/03 09:06:46;;;;;;;9.80;2.15;;;;;;;8.62;100.00;98947.19;5158046;27;20132;-79
2024/01/03 09:09:13;;;;;;;14.07;2.58;;;;;;;8.68;100.00;98947.25;5159396;27;20054;-78
2024/01/03 09:11:41;;;;;;;10.18;2.03;;;;;;;8.67;100.00;98954.47;5157693;27;20043;-79
2024/01/03 09:14:08;;;;;;;12.15;2.58;;;;;;;8.69;100.00;98956.66;5155528;27;20039;-79
2024/01/03 09:16:35;;;;;;;5.45;1.70;;;;;;;8.70;100.00;98958.13;5158227;27;20502;-79
2024/01/03 09:19:05;;;;;;;6.57;1.70;;;;;;;8.70;100.00;98963.41;5157181;27;20089;-79
2024/01/03 09:21:35;;;;;;;10.95;2.47;;;;;;;8.72;100.00;98958.38;5155560;27;20050;-79
2024/01/03 09:24:04;;;;;;;11.30;2.30;;;;;;;8.75;100.00;98968.06;5157097;27;20058;-79
2024/01/03 09:26:31;;;;;;;6.35;2.45;;;;;;;8.78;100.00;98969.03;5154865;27;20051;-78
2024/01/03 09:28:57;;;;;;;9.77;2.40;;;;;;;8.80;100.00;98972.66;5156705;27;20047;-78
2024/01/03 09:31:25;;;;;;;6.47;2.58;;;;;;;8.82;100.00;98972.91;5155556;27;20121;-78
2024/01/03 09:33:51;;;;;;;8.77;3.00;;;;;;;8.84;100.00;98980.41;5155372;27;20494;-78
2024/01/03 09:36:19;;;;;;;7.85;2.13;;;;;;;8.86;100.00;98980.66;5155903;27;20039;-78
2024/01/03 09:38:52;;;;;;;12.27;2.20;;;;;;;8.87;100.00;98987.44;5156435;27;20043;-78
2024/01/03 09:41:19;;;;;;;8.70;2.55;;;;;;;8.89;100.00;98985.03;5155560;27;20092;-78
2024/01/03 09:43:48;;;;;;;18.70;2.58;;;;;;;8.87;100.00;98988.16;5155427;27;20524;-78
2024/01/03 09:46:14;;;;;;;11.60;2.13;;;;;;;8.87;100.00;98990.09;5155509;27;20181;-77
2024/01/03 09:48:41;;;;;;;16.58;2.90;;;;;;;8.87;100.00;98988.16;5155326;27;20096;-77
2024/01/03 09:51:08;;;;;;;11.10;2.35;;;;;;;8.87;100.00;98990.81;5152092;27;20070;-76
2024/01/03 09:53:36;;;;;;;11.98;2.75;;;;;;;8.87;100.00;98992.75;5156540;27;20060;-75
2024/01/03 09:56:03;;;;;;;11.13;2.30;;;;;;;8.86;100.00;99004.53;5156632;27;20454;-80
2024/01/03 09:58:30;;;;;;;13.68;2.78;;;;;;;8.86;100.00;99004.53;5158929;27;20175;-77
2024/01/03 10:00:56;;;;;;;14.95;2.50;;;;;;;8.86;100.00;99007.19;5155518;27;20039;-76
2024/01/03 10:03:23;;;;;;;8.77;1.83;;;;;;;8.82;100.00;99017.28;5154911;27;20108;-83
2024/01/03 10:06:06;;;;;;;12.00;2.10;;;;;;;8.80;100.00;99012.44;5167579;27;20043;-82
2024/01/03 10:08:34;;;;;;;13.30;2.10;;;;;;;8.78;100.00;99011.50;5137457;27;20059;-81
2024/01/03 10:11:01;;;;;;;10.02;2.42;;;;;;;8.75;100.00;99010.50;5159461;27;20078;-82
2024/01/03 10:13:28;;;;;;;7.95;1.80;;;;;;;8.67;100.00;99030.66;5160248;27;20040;-82
2024/01/03 10:16:03;;;;;;;5.47;1.60;;;;;;;8.65;100.00;99017.88;5159406;27;20058;-82
2024/01/03 10:18:29;;;;;;;8.48;1.83;;;;;;;8.65;100.00;99019.78;5159233;27;20537;-82
2024/01/03 10:21:12;;;;;;;7.03;1.90;;;;;;;8.62;100.00;99026.75;5145825;27;20137;-81
2024/01/03 10:23:39;;;;;;;10.75;2.03;;;;;;;8.62;100.00;99023.38;5156480;27;20043;-78
2024/01/03 10:26:05;;;;;;;7.63;1.77;;;;;;;8.62;100.00;99015.44;5154869;27;20050;-78
2024/01/03 10:28:32;;;;;;;8.27;1.85;;;;;;;8.63;100.00;99016.88;5156152;27;20070;-79
2024/01/03 10:30:59;;;;;;;9.27;1.80;;;;;;;8.66;100.00;99015.94;5153695;27;20043;-79
2024/01/03 10:33:26;;;;;;;14.25;2.25;;;;;;;8.68;100.00;99011.63;5154828;27;20047;-78
2024/01/03 10:35:53;;;;;;;13.07;2.17;;;;;;;8.70;100.00;99021.78;5156087;27;20042;-78
2024/01/03 10:38:22;;;;;;;19.85;2.30;;;;;;;8.73;100.00;99023.50;5155696;27;20043;-79
2024/01/03 10:40:49;;;;;;;18.15;2.28;;;;;;;8.75;100.00;99015.81;5155671;27;20039;-79
2024/01/03 10:43:16;;;;;;;19.77;2.97;;;;;;;8.78;100.00;99012.22;5156405;27;20571;-79
2024/01/03 10:45:42;;;;;;;18.25;2.67;;;;;;;8.82;100.00;99023.31;5154225;27;20895;-79
2024/01/03 10:48:09;;;;;;;13.43;2.15;;;;;;;8.85;100.00;99016.34;5156689;27;20051;-80
2024/01/03 10:50:37;;;;;;;23.48;3.03;;;;;;;8.89;100.00;99019.53;5155427;27;20048;-79
2024/01/03 10:53:09;;;;;;;20.02;3.03;;;;;;;8.95;100.00;99018.41;5154957;27;20043;-79
2024/01/03 10:55:38;;;;;;;19.25;2.70;;;;;;;8.96;100.00;99019.13;5158753;27;20100;-83
2024/01/03 10:58:23;;;;;;;19.13;2.45;;;;;;;8.97;100.00;99021.31;5158796;27;20039;-82
2024/01/03 11:01:12;;;;;;;15.13;3.13;;;;;;;8.97;100.00;99023.22;5135040;27;20058;-82
2024/01/03 11:03:45;;;;;;;14.65;2.63;;;;;;;9.00;100.00;99031.00;5158815;27;20146;-80
2024/01/03 11:06:22;;;;;;;19.30;2.88;;;;;;;9.02;100.00;99031.25;5165135;27;20047;-83
2024/01/03 11:08:52;;;;;;;16.88;2.80;;;;;;;9.05;100.00;99037.53;5165816;27;20043;-83
2024/01/03 11:11:36;;;;;;;24.23;3.45;;;;;;;9.07;100.00;99034.41;5158447;27;20040;-82
2024/01/03 11:14:18;;;;;;;17.45;3.63;;;;;;;9.06;100.00;99030.31;5161846;27;20096;-83
2024/01/03 11:16:45;;;;;;;20.13;3.08;;;;;;;9.07;100.00;99029.84;5163111;27;20073;-85
2024/01/03 11:19:13;;;;;;;17.92;2.42;;;;;;;9.09;100.00;99029.38;5162574;27;20051;-84
2024/01/03 11:21:45;;;;;;;16.67;2.60;;;;;;;9.10;100.00;99026.25;5164354;27;20635;-84
2024/01/03 11:24:18;;;;;;;22.67;2.95;;;;;;;9.08;100.00;99017.31;5163117;27;20085;-80
2024/01/03 11:26:58;;;;;;;16.27;3.45;;;;;;;9.10;100.00;99025.53;5164381;27;20047;-81
2024/01/03 11:29:34;;;;;;;15.93;2.95;;;;;;;9.10;100.00;99023.59;5161377;27;20091;-82